Flight Track Log - Related Links

Times and Time Zones

All times are in EDT time to prevent confusion due to time zone crossing. See the GGN7269 flight status page for this flight to view local times or setup timezone preferences in your user account.

Time Position Orientation Groundspeed Altitude Reporting Facility
EDT Latitude Longitude Course Direction KTS MPH feet Rate Location/Type
07:46PM 42.8628 -85.5567 90° East 147 169 2,600  Level Chicago Center
07:47PM 42.8167 -85.5586 182° South 188 216 3,800 1,317 Climbing Chicago Center
07:48PM 42.7825 -85.4881 123° Southeast 220 253 5,300 1,180 Climbing Chicago Center
07:49PM 42.7767 -85.3983 95° East 238 274 6,200 1,082 Climbing Chicago Center
07:50PM 42.7717 -85.3039 94° East 248 285 7,500 1,171 Climbing Chicago Center
07:51PM 42.7500 -85.1107 90° East  Level FlightAware Approximate
07:51PM 42.7994 -85.1986 70° East 243 280 8,600  Level Chicago Center
07:52PM 42.8186 -85.1033 75° East 256 295 9,600 984 Climbing Chicago Center
07:53PM 42.8367 -85.0058 76° East 264 304 10,600 934 Climbing Chicago Center
07:54PM 42.8544 -84.9061 76° East 270 311 11,500 885 Climbing Chicago Center
07:55PM 42.8758 -84.8042 74° East 279 321 12,400 829 Climbing Chicago Center
07:56PM 42.8975 -84.7000 74° East 286 329 13,200 878 Climbing Chicago Center
07:57PM 42.9164 -84.5942 76° East 287 330 14,200 885 Climbing Chicago Center
07:58PM 42.9378 -84.4864 75° East 294 338 15,000 787 Climbing Chicago Center
07:59PM 42.9589 -84.3758 75° East 301 346 15,800 850 Climbing Chicago Center
08:00PM 42.9744 -84.2722 78° East 294 338 16,600 804 Climbing Cleveland Center
08:01PM 42.9947 -84.1572 76° East 299 344 17,300 750 Climbing Cleveland Center
08:02PM 43.0169 -84.0392 76° East 304 350 18,100 900 Climbing Cleveland Center
08:03PM 43.0369 -83.9267 76° East 304 350 19,100 1,000 Climbing Cleveland Center
08:04PM 43.0611 -83.8086 74° East 309 356 20,100 900 Climbing Cleveland Center
08:05PM 43.0831 -83.6931 75° East 314 361 20,900 450 Climbing Cleveland Center
08:06PM 43.1031 -83.5717 77° East 319 367 21,000 50 Climbing Cleveland Center
08:07PM 43.1269 -83.4478 75° East 324 373 21,000  Level Cleveland Center
08:08PM 43.1511 -83.3150 76° East 324 373 21,000  Level Cleveland Center
08:09PM 43.1706 -83.1878 78° East 329 379 21,000  Level Cleveland Center
08:10PM 43.1919 -83.0664 76° East 334 384 21,000  Level Cleveland Center
08:11PM 43.2133 -82.9447 76° East 334 384 21,000  Level Cleveland Center
08:12PM 43.2344 -82.8231 77° East 334 384 21,000 -50 Level Cleveland Center
08:13PM 43.2556 -82.6983 77° East 334 384 20,900  Descending Cleveland Center
08:14PM 43.2703 -82.5733 81° East 334 384 21,000 66 Climbing Cleveland Center
08:15PM 43.2667 -82.5000 94° East 330 380 21,000 -66 Level Toronto Center
08:16PM 43.2667 -82.3833 90° East 320 368 20,900  Descending Toronto Center
08:17PM 43.2833 -82.2500 80° East 320 368 21,000 50 Climbing Toronto Center
08:18PM 43.2833 -82.1333 90° East 330 380 21,000 -50 Level Toronto Center
08:19PM 43.2833 -82.0167 90° East 320 368 20,900 -300 Descending Toronto Center
08:20PM 43.3167 -81.8833 71° East 320 368 20,400 -700 Descending Toronto Center
08:21PM 43.3167 -81.7667 90° East 330 380 19,500 -1,000 Descending Toronto Center
08:22PM 43.3333 -81.6333 80° East 320 368 18,400 -1,100 Descending Toronto Center
08:23PM 43.3333 -81.5167 90° East 320 368 17,300 -1,050 Descending Toronto Center
08:24PM 43.3333 -81.4000 90° East 320 368 16,300 -850 Descending Toronto Center
08:25PM 43.3500 -81.2833 79° East 320 368 15,600 -750 Descending Toronto Center
08:26PM 43.3667 -81.1500 80° East 310 357 14,800 -800 Descending Toronto Center
08:27PM 43.3667 -81.0333 90° East 310 357 14,000 -1,000 Descending Toronto Center
08:28PM 43.3833 -80.9167 79° East 320 368 12,800 -1,150 Descending Toronto Center
08:29PM 43.4167 -80.7833 71° East 320 368 11,700 -950 Descending Toronto Center
08:30PM 43.4167 -80.6667 90° East 320 368 10,900 -1,100 Descending Toronto Center
08:31PM 43.4333 -80.5500 79° East 300 345 9,500 -950 Descending Toronto Center
08:32PM 43.4500 -80.4333 79° East 300 345 9,000 -250 Descending Toronto Center
08:33PM 43.4500 -80.3500 90° East 290 334 9,000  Level Toronto Center
08:34PM 43.4833 -80.2333 68° East 280 322 9,000 -50 Level Toronto Center
08:35PM 43.5167 -80.1333 65° Northeast 280 322 8,900  Descending Toronto Center
08:36PM 43.5333 -80.0500 75° East 290 334 9,000  Climbing Toronto Center
08:37PM 43.5667 -79.9333 68° East 280 322 8,900 -150 Descending Toronto Center
08:38PM 43.5833 -79.8333 77° East 270 311 8,700 -500 Descending Toronto Center
08:39PM 43.5833 -79.7500 90° East 250 288 7,900 -300 Descending Toronto Center
08:40PM 43.5667 -79.6500 103° East 260 299 8,100 -150 Climbing Toronto Center
08:41PM 43.5667 -79.5667 90° East 250 288 7,600 -650 Descending Toronto Center
08:42PM 43.6167 -79.5000 44° Northeast 240 276 6,800 -950 Descending Toronto Center
08:43PM 43.6667 -79.4333 44° Northeast 230 265 5,700 -1,100 Descending Toronto Center
08:44PM 43.7000 -79.3500 61° Northeast 230 265 4,600 -1,000 Descending Toronto Center
08:45PM 43.7500 -79.3333 14° North 220 253 3,700 -750 Descending Toronto Center
08:46PM 43.7667 -79.3833 295° West 180 207 3,100 -400 Descending Toronto Center
08:47PM 43.7500 -79.4500 251° West 160 184 2,900 -400 Descending Toronto Center
08:48PM 43.7333 -79.5000 245° Southwest 150 173 2,300 -650 Descending Toronto Center
08:49PM 43.7000 -79.5167 200° South 140 161 1,600 -650 Descending Toronto Center
08:50PM 43.6833 -79.5667 245° Southwest 130 150 1,000 -500 Descending Toronto Center
08:51PM 43.6667 -79.5833 216° Southwest 120 138 600 -400 Descending Toronto Center

Login

Don't have an account? Register now (free) for customized features, flight alerts, and more!